»·PEaware :: N516DM KVNY-KMRY

N516DM :: KVNY-KMRY

FLIGHT INFORMATION

Flight Status: Arrived
Operator: Privately registered:
United States
More flights under this callsign
Pilot: Conner P. (17787)
Aircraft: CESSNA 182 SKYLANE
(C182)
More flights by this aircraft type
Origin: KVNY Van Nuys
United States
Destination: KMRY Monterey Peninsula
United States
More flights between these airports :: More routes between these airports
Route: +CANOG2 GMN V137 AVE V248 PRB V25 WIGGL KMRY
File this flight plan on PilotEdge
Remarks:
Altitude:
(Current/Filed)
10,000ft
Speed:
(Current/Filed)
120kts
Departed: 08-Jan-18 02:42 PM
Arrived: 08-Jan-18 04:21 PM
Distance/Time
Traveled:
218nm/1:38
Distance/Time
To Go:
Arrived

Flight Plot

Page will automatically refresh every two minutes.

Flight plan parsing failed; only flown route is shown


Map Options




Map Legend


Flown Route
Filed Route
Departure Airport
Arrival Airport
Navaid (VOR, NDB)
Fix

Horizontal Profiles

Position Reports

Time Latitude Longitude Heading Altitude Ground
Speed
08-Jan-18 14:27 34.215097 -118.488268 91 805ft 0kts
08-Jan-18 14:28 34.215097 -118.488264 91 805ft 0kts
08-Jan-18 14:29 34.215097 -118.488260 91 805ft 0kts
08-Jan-18 14:30 34.215097 -118.488257 91 805ft 0kts
08-Jan-18 14:31 34.215097 -118.488253 91 805ft 0kts
08-Jan-18 14:32 34.215097 -118.488249 91 805ft 0kts
08-Jan-18 14:33 34.215097 -118.488245 91 805ft 0kts
08-Jan-18 14:34 34.215097 -118.488241 91 805ft 0kts
08-Jan-18 14:35 34.215096 -118.488237 91 805ft 0kts
08-Jan-18 14:36 34.215096 -118.488233 91 805ft 0kts
08-Jan-18 14:37 34.215096 -118.488229 91 805ft 0kts
08-Jan-18 14:38 34.215096 -118.488225 91 805ft 0kts
08-Jan-18 14:39 34.215096 -118.488220 91 805ft 0kts
08-Jan-18 14:40 34.215096 -118.488216 91 805ft 0kts
08-Jan-18 14:41 34.215096 -118.488212 91 805ft 0kts
08-Jan-18 14:42 34.215096 -118.488208 91 805ft 0kts
08-Jan-18 14:43 34.215096 -118.488205 91 805ft 0kts
08-Jan-18 14:44 34.215096 -118.488202 91 805ft 0kts
08-Jan-18 14:45 34.215106 -118.488108 72 805ft 3kts
08-Jan-18 14:46 34.217052 -118.489106 355 805ft 15kts
08-Jan-18 14:47 34.217993 -118.489912 175 805ft 7kts
08-Jan-18 14:48 34.195912 -118.486823 171 1345ft 104kts
08-Jan-18 14:49 34.169926 -118.495201 225 2369ft 103kts
08-Jan-18 14:50 34.149790 -118.521860 250 3062ft 111kts
08-Jan-18 14:51 34.169003 -118.544700 336 3783ft 108kts
08-Jan-18 14:52 34.197202 -118.559989 337 4502ft 113kts
08-Jan-18 14:53 34.226768 -118.574717 335 5202ft 115kts
08-Jan-18 14:54 34.257069 -118.589722 332 5903ft 119kts
08-Jan-18 14:55 34.288307 -118.605195 332 6606ft 123kts
08-Jan-18 14:56 34.320152 -118.620963 331 7303ft 124kts
08-Jan-18 14:57 34.352073 -118.636789 330 7992ft 124kts
08-Jan-18 14:58 34.384029 -118.652642 329 8675ft 123kts
08-Jan-18 14:59 34.415481 -118.668259 328 9345ft 121kts
08-Jan-18 15:00 34.447064 -118.683964 327 9958ft 123kts
08-Jan-18 15:01 34.483665 -118.702201 330 10026ft 158kts
08-Jan-18 15:02 34.525558 -118.722978 330 10022ft 164kts
08-Jan-18 15:03 34.568342 -118.744178 331 10005ft 166kts
08-Jan-18 15:04 34.611215 -118.765416 331 10004ft 166kts
08-Jan-18 15:05 34.654169 -118.786759 331 10000ft 167kts
08-Jan-18 15:06 34.696869 -118.808017 330 10006ft 166kts
08-Jan-18 15:07 34.739510 -118.829202 330 10009ft 165kts
08-Jan-18 15:08 34.782240 -118.850510 330 10009ft 165kts
08-Jan-18 15:09 34.818302 -118.880280 300 10005ft 154kts
08-Jan-18 15:10 34.847994 -118.919018 304 9992ft 156kts
08-Jan-18 15:11 34.872708 -118.951063 303 9984ft 156kts
08-Jan-18 15:12 34.907162 -118.996100 303 9975ft 155kts
08-Jan-18 15:13 34.931816 -119.028383 303 9970ft 155kts
08-Jan-18 15:14 34.966223 -119.073489 303 9939ft 156kts
08-Jan-18 15:15 34.990936 -119.105911 303 9928ft 156kts
08-Jan-18 15:16 35.025274 -119.151021 303 9921ft 155kts
08-Jan-18 15:17 35.049275 -119.182595 303 9993ft 153kts
08-Jan-18 15:18 35.078481 -119.221061 303 9986ft 155kts
08-Jan-18 15:19 35.107732 -119.259611 303 9982ft 154kts
08-Jan-18 15:20 35.136827 -119.298196 303 9976ft 155kts
08-Jan-18 15:21 35.166141 -119.336781 303 9970ft 154kts
08-Jan-18 15:22 35.195241 -119.375277 303 9974ft 154kts
08-Jan-18 15:23 35.224520 -119.413848 302 9971ft 154kts
08-Jan-18 15:24 35.253795 -119.452686 302 9966ft 155kts
08-Jan-18 15:25 35.282893 -119.491372 301 9963ft 153kts
08-Jan-18 15:26 35.311844 -119.529866 302 9965ft 153kts
08-Jan-18 15:27 35.340790 -119.568482 301 9965ft 153kts
08-Jan-18 15:28 35.369541 -119.606647 301 10004ft 152kts
08-Jan-18 15:29 35.398351 -119.645305 302 10000ft 154kts
08-Jan-18 15:30 35.427551 -119.684291 302 10000ft 154kts
08-Jan-18 15:31 35.456568 -119.723031 302 9973ft 153kts
08-Jan-18 15:32 35.485392 -119.761812 301 9971ft 154kts
08-Jan-18 15:33 35.514325 -119.800380 301 9964ft 152kts
08-Jan-18 15:34 35.543064 -119.838788 301 9975ft 152kts
08-Jan-18 15:35 35.571761 -119.877417 301 9968ft 153kts
08-Jan-18 15:36 35.600622 -119.916226 301 9967ft 153kts
08-Jan-18 15:37 35.629483 -119.955075 301 9955ft 154kts
08-Jan-18 15:38 35.648136 -119.997126 257 9962ft 131kts
08-Jan-18 15:39 35.649558 -120.042821 263 9953ft 135kts
08-Jan-18 15:40 35.651592 -120.088847 262 9948ft 134kts
08-Jan-18 15:41 35.653459 -120.134911 262 9947ft 134kts
08-Jan-18 15:42 35.655322 -120.180832 262 9946ft 134kts
08-Jan-18 15:43 35.657180 -120.226869 262 9945ft 135kts
08-Jan-18 15:44 35.659001 -120.273135 262 9943ft 135kts
08-Jan-18 15:45 35.660817 -120.319298 262 9941ft 135kts
08-Jan-18 15:46 35.662608 -120.365532 262 9940ft 135kts
08-Jan-18 15:47 35.664393 -120.411585 262 9939ft 135kts
08-Jan-18 15:48 35.666165 -120.457606 262 9937ft 135kts
08-Jan-18 15:49 35.667903 -120.503901 262 9938ft 135kts
08-Jan-18 15:50 35.669633 -120.550127 262 9936ft 135kts
08-Jan-18 15:51 35.671353 -120.596478 262 9937ft 135kts
08-Jan-18 15:52 35.683771 -120.639583 318 9940ft 161kts
08-Jan-18 15:53 35.719274 -120.672280 311 9936ft 159kts
08-Jan-18 15:54 35.754166 -120.706302 311 9936ft 159kts
08-Jan-18 15:55 35.789029 -120.740214 311 9937ft 159kts
08-Jan-18 15:56 35.823857 -120.774106 311 9936ft 159kts
08-Jan-18 15:57 35.858777 -120.808117 311 9937ft 159kts
08-Jan-18 15:58 35.893506 -120.841977 311 9936ft 159kts
08-Jan-18 15:59 35.928432 -120.876066 311 9938ft 159kts
08-Jan-18 16:00 35.963108 -120.909924 311 9988ft 157kts
08-Jan-18 16:01 35.997607 -120.943703 311 10001ft 159kts
08-Jan-18 16:02 36.032577 -120.977951 312 10001ft 160kts
08-Jan-18 16:03 36.067579 -121.012262 312 9997ft 161kts
08-Jan-18 16:04 36.102674 -121.046680 312 9995ft 160kts
08-Jan-18 16:05 36.137643 -121.081077 312 9993ft 160kts
08-Jan-18 16:06 36.172592 -121.115474 312 9989ft 161kts
08-Jan-18 16:07 36.207713 -121.150072 312 9996ft 160kts
08-Jan-18 16:08 36.242665 -121.184549 312 9997ft 161kts
08-Jan-18 16:09 36.277901 -121.219346 312 9979ft 161kts
08-Jan-18 16:10 36.313012 -121.254104 313 9962ft 161kts
08-Jan-18 16:11 36.348001 -121.288851 313 9970ft 162kts
08-Jan-18 16:12 36.383946 -121.324517 313 9707ft 174kts
08-Jan-18 16:13 36.421322 -121.361560 310 9162ft 166kts
08-Jan-18 16:14 36.453503 -121.403003 304 8683ft 169kts
08-Jan-18 16:15 36.484755 -121.443370 302 8184ft 160kts
08-Jan-18 16:16 36.513339 -121.480299 301 7406ft 138kts
08-Jan-18 16:17 36.539810 -121.514897 302 6616ft 137kts
08-Jan-18 16:18 36.567081 -121.550115 303 5630ft 144kts
08-Jan-18 16:19 36.574611 -121.590718 232 4598ft 113kts
08-Jan-18 16:20 36.565389 -121.624129 233 4115ft 98kts
08-Jan-18 16:21 36.567109 -121.664788 262 3570ft 127kts
08-Jan-18 16:22 36.570226 -121.705130 261 2758ft 110kts
08-Jan-18 16:23 36.573320 -121.742728 268 2035ft 106kts
08-Jan-18 16:24 36.576198 -121.777411 272 1364ft 97kts
08-Jan-18 16:25 36.576839 -121.807282 276 893ft 76kts
08-Jan-18 16:26 36.582503 -121.831216 292 373ft 65kts
08-Jan-18 16:27 36.587038 -121.845618 222 260ft 10kts
08-Jan-18 16:28 36.587268 -121.848373 293 260ft 18kts
08-Jan-18 16:29 36.589344 -121.854841 266 260ft 19kts
08-Jan-18 16:30 36.589213 -121.857856 71 260ft 0kts
08-Jan-18 16:31 36.589214 -121.857856 71 260ft 0kts
08-Jan-18 16:32 36.589214 -121.857856 71 260ft 0kts
08-Jan-18 16:33 36.589214 -121.857856 71 260ft 0kts
08-Jan-18 16:34 36.589214 -121.857856 71 260ft 0kts
08-Jan-18 16:35 36.589214 -121.857856 71 260ft 0kts
08-Jan-18 16:36 36.589214 -121.857856 71 260ft 0kts
08-Jan-18 16:37 36.589214 -121.857856 71 260ft 0kts
08-Jan-18 16:38 36.589214 -121.857856 71 260ft 0kts

Navigation Log

Ident Type
Flight plan parsing failed, navigation log unavailable